sensor_id;sensor_type;location;lat;lon;timestamp;P1;durP1;ratioP1;P2;durP2;ratioP2
3771;SDS011;1901;48.172;12.824;2023-06-22T00:02:05;8.40;;;5.10;;
3771;SDS011;1901;48.172;12.824;2023-06-22T00:04:32;10.40;;;5.07;;
3771;SDS011;1901;48.172;12.824;2023-06-22T00:06:59;10.00;;;5.10;;
3771;SDS011;1901;48.172;12.824;2023-06-22T00:09:26;12.47;;;5.53;;
3771;SDS011;1901;48.172;12.824;2023-06-22T00:11:53;8.87;;;5.20;;
3771;SDS011;1901;48.172;12.824;2023-06-22T00:14:20;11.17;;;6.07;;
3771;SDS011;1901;48.172;12.824;2023-06-22T00:16:49;12.53;;;6.17;;
3771;SDS011;1901;48.172;12.824;2023-06-22T00:19:22;10.97;;;5.90;;
3771;SDS011;1901;48.172;12.824;2023-06-22T00:21:49;10.37;;;5.27;;
3771;SDS011;1901;48.172;12.824;2023-06-22T00:24:17;12.60;;;5.37;;
3771;SDS011;1901;48.172;12.824;2023-06-22T00:26:45;12.90;;;5.30;;
3771;SDS011;1901;48.172;12.824;2023-06-22T00:29:12;9.27;;;5.53;;
3771;SDS011;1901;48.172;12.824;2023-06-22T00:31:39;15.93;;;6.60;;
3771;SDS011;1901;48.172;12.824;2023-06-22T00:34:08;9.47;;;5.90;;
3771;SDS011;1901;48.172;12.824;2023-06-22T00:36:35;9.10;;;6.33;;
3771;SDS011;1901;48.172;12.824;2023-06-22T00:39:02;15.20;;;6.43;;
3771;SDS011;1901;48.172;12.824;2023-06-22T00:41:30;13.40;;;5.87;;
3771;SDS011;1901;48.172;12.824;2023-06-22T00:43:58;9.13;;;5.67;;
3771;SDS011;1901;48.172;12.824;2023-06-22T00:46:25;12.23;;;7.03;;
3771;SDS011;1901;48.172;12.824;2023-06-22T00:48:52;11.67;;;6.50;;
3771;SDS011;1901;48.172;12.824;2023-06-22T00:51:23;10.10;;;6.47;;
3771;SDS011;1901;48.172;12.824;2023-06-22T00:53:51;15.20;;;7.67;;
3771;SDS011;1901;48.172;12.824;2023-06-22T00:56:18;13.83;;;7.50;;
3771;SDS011;1901;48.172;12.824;2023-06-22T00:58:49;13.87;;;6.87;;
3771;SDS011;1901;48.172;12.824;2023-06-22T01:01:18;12.53;;;5.57;;
3771;SDS011;1901;48.172;12.824;2023-06-22T01:03:48;10.60;;;5.23;;
3771;SDS011;1901;48.172;12.824;2023-06-22T01:06:17;10.10;;;4.80;;
3771;SDS011;1901;48.172;12.824;2023-06-22T01:08:49;9.97;;;5.10;;
3771;SDS011;1901;48.172;12.824;2023-06-22T01:11:20;9.93;;;4.90;;
3771;SDS011;1901;48.172;12.824;2023-06-22T01:13:50;10.93;;;4.67;;
3771;SDS011;1901;48.172;12.824;2023-06-22T01:16:18;10.57;;;4.40;;
3771;SDS011;1901;48.172;12.824;2023-06-22T01:18:47;10.90;;;5.40;;
3771;SDS011;1901;48.172;12.824;2023-06-22T01:21:16;13.17;;;5.07;;
3771;SDS011;1901;48.172;12.824;2023-06-22T01:23:50;8.90;;;5.20;;
3771;SDS011;1901;48.172;12.824;2023-06-22T01:26:19;6.07;;;4.20;;
3771;SDS011;1901;48.172;12.824;2023-06-22T01:28:49;8.23;;;4.93;;
3771;SDS011;1901;48.172;12.824;2023-06-22T01:31:18;4.80;;;4.30;;
3771;SDS011;1901;48.172;12.824;2023-06-22T01:33:46;8.83;;;4.83;;
3771;SDS011;1901;48.172;12.824;2023-06-22T01:36:15;7.77;;;5.10;;
3771;SDS011;1901;48.172;12.824;2023-06-22T01:38:43;12.53;;;5.40;;
3771;SDS011;1901;48.172;12.824;2023-06-22T01:41:11;9.43;;;4.10;;
3771;SDS011;1901;48.172;12.824;2023-06-22T01:43:39;8.53;;;4.77;;
3771;SDS011;1901;48.172;12.824;2023-06-22T01:46:08;8.10;;;4.90;;
3771;SDS011;1901;48.172;12.824;2023-06-22T01:48:35;8.60;;;4.97;;
3771;SDS011;1901;48.172;12.824;2023-06-22T01:51:02;14.20;;;5.30;;
3771;SDS011;1901;48.172;12.824;2023-06-22T01:53:30;8.73;;;4.50;;
3771;SDS011;1901;48.172;12.824;2023-06-22T01:55:57;7.13;;;4.77;;
3771;SDS011;1901;48.172;12.824;2023-06-22T01:58:25;11.27;;;4.37;;
3771;SDS011;1901;48.172;12.824;2023-06-22T02:00:56;10.07;;;5.50;;
3771;SDS011;1901;48.172;12.824;2023-06-22T02:03:27;5.30;;;3.90;;
3771;SDS011;1901;48.172;12.824;2023-06-22T02:05:58;5.20;;;4.33;;
3771;SDS011;1901;48.172;12.824;2023-06-22T02:08:29;7.53;;;4.70;;
3771;SDS011;1901;48.172;12.824;2023-06-22T02:10:57;7.40;;;5.20;;
3771;SDS011;1901;48.172;12.824;2023-06-22T02:13:24;6.80;;;5.03;;
3771;SDS011;1901;48.172;12.824;2023-06-22T02:15:52;8.50;;;5.13;;
3771;SDS011;1901;48.172;12.824;2023-06-22T02:18:19;12.80;;;4.53;;
3771;SDS011;1901;48.172;12.824;2023-06-22T02:20:48;8.83;;;4.90;;
3771;SDS011;1901;48.172;12.824;2023-06-22T02:23:15;8.03;;;5.87;;
3771;SDS011;1901;48.172;12.824;2023-06-22T02:25:42;6.63;;;4.60;;
3771;SDS011;1901;48.172;12.824;2023-06-22T02:28:09;8.10;;;4.70;;
3771;SDS011;1901;48.172;12.824;2023-06-22T02:30:36;7.80;;;4.47;;
3771;SDS011;1901;48.172;12.824;2023-06-22T02:33:04;9.40;;;5.40;;
3771;SDS011;1901;48.172;12.824;2023-06-22T02:35:31;10.20;;;5.40;;
3771;SDS011;1901;48.172;12.824;2023-06-22T02:38:02;8.50;;;5.20;;
3771;SDS011;1901;48.172;12.824;2023-06-22T02:40:30;14.17;;;5.20;;
3771;SDS011;1901;48.172;12.824;2023-06-22T02:42:57;6.83;;;6.00;;
3771;SDS011;1901;48.172;12.824;2023-06-22T02:45:27;8.40;;;5.10;;
3771;SDS011;1901;48.172;12.824;2023-06-22T02:47:54;7.83;;;5.00;;
3771;SDS011;1901;48.172;12.824;2023-06-22T02:50:23;12.70;;;4.70;;
3771;SDS011;1901;48.172;12.824;2023-06-22T02:52:50;9.37;;;5.17;;
3771;SDS011;1901;48.172;12.824;2023-06-22T02:55:18;16.53;;;5.53;;
3771;SDS011;1901;48.172;12.824;2023-06-22T02:57:46;13.57;;;6.20;;
3771;SDS011;1901;48.172;12.824;2023-06-22T03:00:13;9.13;;;5.20;;
3771;SDS011;1901;48.172;12.824;2023-06-22T03:02:43;10.70;;;5.47;;
3771;SDS011;1901;48.172;12.824;2023-06-22T03:05:10;8.53;;;5.10;;
3771;SDS011;1901;48.172;12.824;2023-06-22T03:07:40;5.20;;;4.63;;
3771;SDS011;1901;48.172;12.824;2023-06-22T03:10:07;9.10;;;5.00;;
3771;SDS011;1901;48.172;12.824;2023-06-22T03:12:36;7.70;;;5.23;;
3771;SDS011;1901;48.172;12.824;2023-06-22T03:15:04;10.10;;;4.83;;
3771;SDS011;1901;48.172;12.824;2023-06-22T03:17:32;13.70;;;5.50;;
3771;SDS011;1901;48.172;12.824;2023-06-22T03:20:00;10.00;;;5.80;;
3771;SDS011;1901;48.172;12.824;2023-06-22T03:22:32;11.20;;;5.83;;
3771;SDS011;1901;48.172;12.824;2023-06-22T03:24:59;7.77;;;4.77;;
3771;SDS011;1901;48.172;12.824;2023-06-22T03:27:26;9.93;;;4.73;;
3771;SDS011;1901;48.172;12.824;2023-06-22T03:29:56;10.23;;;6.10;;
3771;SDS011;1901;48.172;12.824;2023-06-22T03:32:23;12.23;;;6.00;;
3771;SDS011;1901;48.172;12.824;2023-06-22T03:34:53;13.27;;;6.37;;
3771;SDS011;1901;48.172;12.824;2023-06-22T03:37:23;14.13;;;5.83;;
3771;SDS011;1901;48.172;12.824;2023-06-22T03:39:51;17.63;;;7.10;;
3771;SDS011;1901;48.172;12.824;2023-06-22T03:42:18;11.00;;;5.90;;
3771;SDS011;1901;48.172;12.824;2023-06-22T03:44:45;9.57;;;6.73;;
3771;SDS011;1901;48.172;12.824;2023-06-22T03:47:13;8.00;;;5.83;;
3771;SDS011;1901;48.172;12.824;2023-06-22T03:49:40;12.40;;;6.70;;
3771;SDS011;1901;48.172;12.824;2023-06-22T03:52:08;12.37;;;6.33;;
3771;SDS011;1901;48.172;12.824;2023-06-22T03:54:35;10.40;;;6.27;;
3771;SDS011;1901;48.172;12.824;2023-06-22T03:57:03;8.10;;;5.27;;
3771;SDS011;1901;48.172;12.824;2023-06-22T03:59:30;13.87;;;6.77;;
3771;SDS011;1901;48.172;12.824;2023-06-22T04:01:57;13.07;;;6.00;;
3771;SDS011;1901;48.172;12.824;2023-06-22T04:04:26;14.40;;;6.87;;
3771;SDS011;1901;48.172;12.824;2023-06-22T04:06:53;9.90;;;6.47;;
3771;SDS011;1901;48.172;12.824;2023-06-22T04:09:20;16.17;;;7.10;;
3771;SDS011;1901;48.172;12.824;2023-06-22T04:11:47;10.87;;;5.87;;
3771;SDS011;1901;48.172;12.824;2023-06-22T04:14:14;8.40;;;5.17;;
3771;SDS011;1901;48.172;12.824;2023-06-22T04:16:42;10.53;;;6.67;;
3771;SDS011;1901;48.172;12.824;2023-06-22T04:19:09;9.10;;;5.17;;
3771;SDS011;1901;48.172;12.824;2023-06-22T04:21:42;7.10;;;5.20;;
3771;SDS011;1901;48.172;12.824;2023-06-22T04:24:10;15.00;;;5.60;;
3771;SDS011;1901;48.172;12.824;2023-06-22T04:26:37;10.47;;;6.50;;
3771;SDS011;1901;48.172;12.824;2023-06-22T04:29:06;11.47;;;6.70;;
3771;SDS011;1901;48.172;12.824;2023-06-22T04:31:34;16.90;;;6.90;;
3771;SDS011;1901;48.172;12.824;2023-06-22T04:34:02;10.67;;;5.87;;
3771;SDS011;1901;48.172;12.824;2023-06-22T04:36:32;9.63;;;5.47;;
3771;SDS011;1901;48.172;12.824;2023-06-22T04:39:03;11.10;;;5.90;;
3771;SDS011;1901;48.172;12.824;2023-06-22T04:41:31;8.70;;;5.37;;
3771;SDS011;1901;48.172;12.824;2023-06-22T04:44:07;7.27;;;5.30;;
3771;SDS011;1901;48.172;12.824;2023-06-22T04:46:34;9.07;;;4.97;;
3771;SDS011;1901;48.172;12.824;2023-06-22T04:49:05;9.27;;;4.43;;
3771;SDS011;1901;48.172;12.824;2023-06-22T04:51:35;5.70;;;4.83;;
3771;SDS011;1901;48.172;12.824;2023-06-22T04:54:04;11.10;;;6.00;;
3771;SDS011;1901;48.172;12.824;2023-06-22T04:56:31;14.77;;;5.07;;
3771;SDS011;1901;48.172;12.824;2023-06-22T04:58:58;5.70;;;5.00;;
3771;SDS011;1901;48.172;12.824;2023-06-22T05:01:26;10.47;;;5.00;;
3771;SDS011;1901;48.172;12.824;2023-06-22T05:03:53;8.57;;;4.60;;
3771;SDS011;1901;48.172;12.824;2023-06-22T05:06:22;7.87;;;4.37;;
3771;SDS011;1901;48.172;12.824;2023-06-22T05:08:51;8.90;;;4.37;;
3771;SDS011;1901;48.172;12.824;2023-06-22T05:11:19;7.17;;;4.17;;
3771;SDS011;1901;48.172;12.824;2023-06-22T05:13:46;6.27;;;4.43;;
3771;SDS011;1901;48.172;12.824;2023-06-22T05:16:13;5.50;;;4.13;;
3771;SDS011;1901;48.172;12.824;2023-06-22T05:18:40;7.63;;;4.63;;
3771;SDS011;1901;48.172;12.824;2023-06-22T05:21:08;5.33;;;4.30;;
3771;SDS011;1901;48.172;12.824;2023-06-22T05:23:35;6.43;;;3.77;;
3771;SDS011;1901;48.172;12.824;2023-06-22T05:26:02;8.87;;;4.93;;
3771;SDS011;1901;48.172;12.824;2023-06-22T05:28:31;13.37;;;4.60;;
3771;SDS011;1901;48.172;12.824;2023-06-22T05:30:59;10.50;;;5.37;;
3771;SDS011;1901;48.172;12.824;2023-06-22T05:33:26;9.90;;;3.90;;
3771;SDS011;1901;48.172;12.824;2023-06-22T05:35:54;5.60;;;3.70;;
3771;SDS011;1901;48.172;12.824;2023-06-22T05:38:21;8.53;;;5.10;;
3771;SDS011;1901;48.172;12.824;2023-06-22T05:40:48;10.33;;;4.63;;
3771;SDS011;1901;48.172;12.824;2023-06-22T05:43:15;11.10;;;4.90;;
3771;SDS011;1901;48.172;12.824;2023-06-22T05:45:44;4.83;;;4.20;;
3771;SDS011;1901;48.172;12.824;2023-06-22T05:48:11;9.70;;;4.50;;
3771;SDS011;1901;48.172;12.824;2023-06-22T05:50:39;6.23;;;4.23;;
3771;SDS011;1901;48.172;12.824;2023-06-22T05:53:06;9.10;;;4.73;;
3771;SDS011;1901;48.172;12.824;2023-06-22T05:55:33;5.27;;;3.63;;
3771;SDS011;1901;48.172;12.824;2023-06-22T05:58:00;6.43;;;3.90;;
3771;SDS011;1901;48.172;12.824;2023-06-22T06:00:28;7.30;;;4.37;;
3771;SDS011;1901;48.172;12.824;2023-06-22T06:02:57;10.90;;;4.70;;
3771;SDS011;1901;48.172;12.824;2023-06-22T06:05:28;8.30;;;3.97;;
3771;SDS011;1901;48.172;12.824;2023-06-22T06:07:56;6.20;;;4.03;;
3771;SDS011;1901;48.172;12.824;2023-06-22T06:10:23;6.57;;;4.03;;
3771;SDS011;1901;48.172;12.824;2023-06-22T06:12:50;16.23;;;4.70;;
3771;SDS011;1901;48.172;12.824;2023-06-22T06:15:17;6.77;;;4.07;;
3771;SDS011;1901;48.172;12.824;2023-06-22T06:17:45;6.53;;;4.90;;
3771;SDS011;1901;48.172;12.824;2023-06-22T06:20:14;7.40;;;4.07;;
3771;SDS011;1901;48.172;12.824;2023-06-22T06:22:41;7.60;;;4.97;;
3771;SDS011;1901;48.172;12.824;2023-06-22T06:25:09;13.40;;;5.80;;
3771;SDS011;1901;48.172;12.824;2023-06-22T06:27:40;14.77;;;5.80;;
3771;SDS011;1901;48.172;12.824;2023-06-22T06:30:08;8.10;;;5.00;;
3771;SDS011;1901;48.172;12.824;2023-06-22T06:32:35;9.30;;;6.00;;
3771;SDS011;1901;48.172;12.824;2023-06-22T06:35:03;8.77;;;4.90;;
3771;SDS011;1901;48.172;12.824;2023-06-22T06:37:32;7.00;;;4.97;;
3771;SDS011;1901;48.172;12.824;2023-06-22T06:40:00;7.37;;;4.40;;
3771;SDS011;1901;48.172;12.824;2023-06-22T06:42:27;7.90;;;4.67;;
3771;SDS011;1901;48.172;12.824;2023-06-22T06:44:54;7.67;;;4.47;;
3771;SDS011;1901;48.172;12.824;2023-06-22T06:47:21;7.87;;;5.20;;
3771;SDS011;1901;48.172;12.824;2023-06-22T06:49:48;8.33;;;4.07;;
3771;SDS011;1901;48.172;12.824;2023-06-22T06:52:15;10.63;;;3.90;;
3771;SDS011;1901;48.172;12.824;2023-06-22T06:54:44;11.03;;;4.80;;
3771;SDS011;1901;48.172;12.824;2023-06-22T06:57:11;10.30;;;4.60;;
3771;SDS011;1901;48.172;12.824;2023-06-22T06:59:40;4.60;;;4.20;;
3771;SDS011;1901;48.172;12.824;2023-06-22T07:02:07;6.97;;;4.77;;
3771;SDS011;1901;48.172;12.824;2023-06-22T07:04:34;8.67;;;4.73;;
3771;SDS011;1901;48.172;12.824;2023-06-22T07:07:02;9.63;;;3.97;;
3771;SDS011;1901;48.172;12.824;2023-06-22T07:09:29;9.47;;;4.50;;
3771;SDS011;1901;48.172;12.824;2023-06-22T07:11:57;7.13;;;4.77;;
3771;SDS011;1901;48.172;12.824;2023-06-22T07:14:24;9.17;;;4.90;;
3771;SDS011;1901;48.172;12.824;2023-06-22T07:16:52;14.83;;;7.33;;
3771;SDS011;1901;48.172;12.824;2023-06-22T07:19:24;8.30;;;4.50;;
3771;SDS011;1901;48.172;12.824;2023-06-22T07:21:51;7.97;;;4.40;;
3771;SDS011;1901;48.172;12.824;2023-06-22T07:24:19;6.13;;;5.03;;
3771;SDS011;1901;48.172;12.824;2023-06-22T07:26:46;6.93;;;4.03;;
3771;SDS011;1901;48.172;12.824;2023-06-22T07:29:16;5.37;;;4.87;;
3771;SDS011;1901;48.172;12.824;2023-06-22T07:31:44;8.37;;;4.63;;
3771;SDS011;1901;48.172;12.824;2023-06-22T07:34:11;11.80;;;4.43;;
3771;SDS011;1901;48.172;12.824;2023-06-22T07:36:38;9.20;;;4.80;;
3771;SDS011;1901;48.172;12.824;2023-06-22T07:39:05;10.30;;;4.53;;
3771;SDS011;1901;48.172;12.824;2023-06-22T07:41:32;7.40;;;4.30;;
3771;SDS011;1901;48.172;12.824;2023-06-22T07:43:59;12.43;;;5.10;;
3771;SDS011;1901;48.172;12.824;2023-06-22T07:46:28;9.53;;;4.40;;
3771;SDS011;1901;48.172;12.824;2023-06-22T07:48:56;7.47;;;4.30;;
3771;SDS011;1901;48.172;12.824;2023-06-22T07:51:23;10.67;;;5.57;;
3771;SDS011;1901;48.172;12.824;2023-06-22T07:53:50;8.70;;;4.70;;
3771;SDS011;1901;48.172;12.824;2023-06-22T07:56:17;8.07;;;5.30;;
3771;SDS011;1901;48.172;12.824;2023-06-22T07:58:45;11.07;;;4.77;;
3771;SDS011;1901;48.172;12.824;2023-06-22T08:01:13;7.17;;;5.23;;
3771;SDS011;1901;48.172;12.824;2023-06-22T08:03:41;6.30;;;4.67;;
3771;SDS011;1901;48.172;12.824;2023-06-22T08:06:08;7.73;;;3.70;;
3771;SDS011;1901;48.172;12.824;2023-06-22T08:08:36;6.83;;;4.70;;
3771;SDS011;1901;48.172;12.824;2023-06-22T08:11:03;9.20;;;4.97;;
3771;SDS011;1901;48.172;12.824;2023-06-22T08:13:30;9.87;;;4.30;;
3771;SDS011;1901;48.172;12.824;2023-06-22T08:15:57;10.57;;;3.73;;
3771;SDS011;1901;48.172;12.824;2023-06-22T08:18:25;8.23;;;4.43;;
3771;SDS011;1901;48.172;12.824;2023-06-22T08:20:53;8.20;;;4.87;;
3771;SDS011;1901;48.172;12.824;2023-06-22T08:23:20;15.67;;;5.10;;
3771;SDS011;1901;48.172;12.824;2023-06-22T08:25:47;7.23;;;4.70;;
3771;SDS011;1901;48.172;12.824;2023-06-22T08:28:15;17.57;;;4.87;;
3771;SDS011;1901;48.172;12.824;2023-06-22T08:30:42;7.70;;;4.27;;
3771;SDS011;1901;48.172;12.824;2023-06-22T08:33:09;6.50;;;4.40;;
3771;SDS011;1901;48.172;12.824;2023-06-22T08:35:37;7.20;;;4.77;;
3771;SDS011;1901;48.172;12.824;2023-06-22T08:38:06;5.00;;;4.00;;
3771;SDS011;1901;48.172;12.824;2023-06-22T08:40:34;11.40;;;5.27;;
3771;SDS011;1901;48.172;12.824;2023-06-22T08:43:01;9.23;;;4.60;;
3771;SDS011;1901;48.172;12.824;2023-06-22T08:45:28;8.30;;;5.07;;
3771;SDS011;1901;48.172;12.824;2023-06-22T08:47:55;7.57;;;4.60;;
3771;SDS011;1901;48.172;12.824;2023-06-22T08:50:23;5.63;;;3.83;;
3771;SDS011;1901;48.172;12.824;2023-06-22T08:52:50;5.83;;;3.60;;
3771;SDS011;1901;48.172;12.824;2023-06-22T08:55:19;5.50;;;4.53;;
3771;SDS011;1901;48.172;12.824;2023-06-22T08:57:46;8.30;;;4.70;;
3771;SDS011;1901;48.172;12.824;2023-06-22T09:00:14;7.43;;;3.70;;
3771;SDS011;1901;48.172;12.824;2023-06-22T09:02:42;8.97;;;4.60;;
3771;SDS011;1901;48.172;12.824;2023-06-22T09:05:09;8.37;;;3.80;;
3771;SDS011;1901;48.172;12.824;2023-06-22T09:07:37;7.20;;;4.10;;
3771;SDS011;1901;48.172;12.824;2023-06-22T09:10:04;7.83;;;3.93;;
3771;SDS011;1901;48.172;12.824;2023-06-22T09:12:33;8.53;;;4.07;;
3771;SDS011;1901;48.172;12.824;2023-06-22T09:15:03;9.90;;;4.43;;
3771;SDS011;1901;48.172;12.824;2023-06-22T09:17:31;8.83;;;3.43;;
3771;SDS011;1901;48.172;12.824;2023-06-22T09:20:00;6.73;;;4.20;;
3771;SDS011;1901;48.172;12.824;2023-06-22T09:22:30;9.63;;;5.33;;
3771;SDS011;1901;48.172;12.824;2023-06-22T09:24:57;8.10;;;4.67;;
3771;SDS011;1901;48.172;12.824;2023-06-22T09:27:25;8.50;;;4.00;;
3771;SDS011;1901;48.172;12.824;2023-06-22T09:29:54;7.47;;;4.47;;
3771;SDS011;1901;48.172;12.824;2023-06-22T09:32:23;9.83;;;4.07;;
3771;SDS011;1901;48.172;12.824;2023-06-22T09:34:50;8.03;;;5.17;;
3771;SDS011;1901;48.172;12.824;2023-06-22T09:37:18;10.70;;;4.03;;
3771;SDS011;1901;48.172;12.824;2023-06-22T09:39:45;9.70;;;4.30;;
3771;SDS011;1901;48.172;12.824;2023-06-22T09:42:12;9.80;;;4.97;;
3771;SDS011;1901;48.172;12.824;2023-06-22T09:44:39;22.43;;;6.57;;
3771;SDS011;1901;48.172;12.824;2023-06-22T09:47:08;9.70;;;4.77;;
3771;SDS011;1901;48.172;12.824;2023-06-22T09:49:35;10.47;;;5.03;;
3771;SDS011;1901;48.172;12.824;2023-06-22T09:52:02;7.03;;;3.80;;
3771;SDS011;1901;48.172;12.824;2023-06-22T09:54:29;5.20;;;4.70;;
3771;SDS011;1901;48.172;12.824;2023-06-22T09:56:56;10.73;;;5.27;;
3771;SDS011;1901;48.172;12.824;2023-06-22T09:59:23;8.90;;;4.10;;
3771;SDS011;1901;48.172;12.824;2023-06-22T10:01:50;12.07;;;5.10;;
3771;SDS011;1901;48.172;12.824;2023-06-22T10:04:19;7.40;;;4.40;;
3771;SDS011;1901;48.172;12.824;2023-06-22T10:06:46;8.40;;;4.77;;
3771;SDS011;1901;48.172;12.824;2023-06-22T10:09:13;16.27;;;4.90;;
3771;SDS011;1901;48.172;12.824;2023-06-22T10:11:40;10.47;;;5.00;;
3771;SDS011;1901;48.172;12.824;2023-06-22T10:14:08;10.40;;;5.30;;
3771;SDS011;1901;48.172;12.824;2023-06-22T10:16:35;10.20;;;4.57;;
3771;SDS011;1901;48.172;12.824;2023-06-22T10:19:03;8.97;;;4.20;;
3771;SDS011;1901;48.172;12.824;2023-06-22T10:21:31;7.63;;;4.60;;
3771;SDS011;1901;48.172;12.824;2023-06-22T10:23:59;8.30;;;4.60;;
3771;SDS011;1901;48.172;12.824;2023-06-22T10:26:31;8.67;;;4.30;;
3771;SDS011;1901;48.172;12.824;2023-06-22T10:28:58;14.97;;;6.20;;
3771;SDS011;1901;48.172;12.824;2023-06-22T10:31:25;12.03;;;5.53;;
3771;SDS011;1901;48.172;12.824;2023-06-22T10:33:52;7.97;;;4.60;;
3771;SDS011;1901;48.172;12.824;2023-06-22T10:36:20;11.03;;;4.47;;
3771;SDS011;1901;48.172;12.824;2023-06-22T10:38:48;9.60;;;5.27;;
3771;SDS011;1901;48.172;12.824;2023-06-22T10:41:17;11.53;;;4.90;;
3771;SDS011;1901;48.172;12.824;2023-06-22T10:43:44;9.97;;;4.37;;
3771;SDS011;1901;48.172;12.824;2023-06-22T10:46:12;8.03;;;4.80;;
3771;SDS011;1901;48.172;12.824;2023-06-22T10:48:39;10.40;;;5.10;;
3771;SDS011;1901;48.172;12.824;2023-06-22T10:51:06;10.47;;;4.90;;
3771;SDS011;1901;48.172;12.824;2023-06-22T10:53:33;12.90;;;5.13;;
3771;SDS011;1901;48.172;12.824;2023-06-22T10:56:02;10.27;;;6.87;;
3771;SDS011;1901;48.172;12.824;2023-06-22T10:58:29;8.40;;;5.73;;
3771;SDS011;1901;48.172;12.824;2023-06-22T11:00:56;8.90;;;6.30;;
3771;SDS011;1901;48.172;12.824;2023-06-22T11:03:24;10.07;;;5.60;;
3771;SDS011;1901;48.172;12.824;2023-06-22T11:05:51;10.00;;;5.60;;
3771;SDS011;1901;48.172;12.824;2023-06-22T11:08:18;7.17;;;5.20;;
3771;SDS011;1901;48.172;12.824;2023-06-22T11:10:45;6.97;;;4.67;;
3771;SDS011;1901;48.172;12.824;2023-06-22T11:13:13;13.07;;;5.43;;
3771;SDS011;1901;48.172;12.824;2023-06-22T11:15:40;8.50;;;5.00;;
3771;SDS011;1901;48.172;12.824;2023-06-22T11:18:08;18.70;;;6.80;;
3771;SDS011;1901;48.172;12.824;2023-06-22T11:20:35;12.07;;;6.60;;
3771;SDS011;1901;48.172;12.824;2023-06-22T11:23:03;10.30;;;5.20;;
3771;SDS011;1901;48.172;12.824;2023-06-22T11:25:31;9.13;;;5.77;;
3771;SDS011;1901;48.172;12.824;2023-06-22T11:28:00;10.37;;;5.37;;
3771;SDS011;1901;48.172;12.824;2023-06-22T11:30:28;8.97;;;5.03;;
3771;SDS011;1901;48.172;12.824;2023-06-22T11:32:56;12.20;;;6.23;;
3771;SDS011;1901;48.172;12.824;2023-06-22T11:35:24;11.30;;;6.70;;
3771;SDS011;1901;48.172;12.824;2023-06-22T11:37:51;10.17;;;5.37;;
3771;SDS011;1901;48.172;12.824;2023-06-22T11:40:18;9.40;;;5.97;;
3771;SDS011;1901;48.172;12.824;2023-06-22T11:42:45;12.80;;;6.13;;
3771;SDS011;1901;48.172;12.824;2023-06-22T11:45:12;13.73;;;5.73;;
3771;SDS011;1901;48.172;12.824;2023-06-22T11:47:41;8.97;;;5.90;;
3771;SDS011;1901;48.172;12.824;2023-06-22T11:50:08;14.27;;;6.10;;
3771;SDS011;1901;48.172;12.824;2023-06-22T11:52:36;10.87;;;6.10;;
3771;SDS011;1901;48.172;12.824;2023-06-22T11:55:04;11.70;;;5.83;;
3771;SDS011;1901;48.172;12.824;2023-06-22T11:57:32;16.03;;;5.97;;
3771;SDS011;1901;48.172;12.824;2023-06-22T12:00:00;9.20;;;5.97;;
3771;SDS011;1901;48.172;12.824;2023-06-22T12:02:31;9.90;;;5.10;;
3771;SDS011;1901;48.172;12.824;2023-06-22T12:04:59;20.47;;;5.43;;
3771;SDS011;1901;48.172;12.824;2023-06-22T12:07:29;8.43;;;6.63;;
3771;SDS011;1901;48.172;12.824;2023-06-22T12:09:57;14.67;;;6.30;;
3771;SDS011;1901;48.172;12.824;2023-06-22T12:12:24;10.70;;;6.03;;
3771;SDS011;1901;48.172;12.824;2023-06-22T12:14:51;9.20;;;6.10;;
3771;SDS011;1901;48.172;12.824;2023-06-22T12:17:18;10.13;;;5.57;;
3771;SDS011;1901;48.172;12.824;2023-06-22T12:19:46;11.17;;;5.53;;
3771;SDS011;1901;48.172;12.824;2023-06-22T12:22:16;9.60;;;5.97;;
3771;SDS011;1901;48.172;12.824;2023-06-22T12:24:43;11.90;;;5.43;;
3771;SDS011;1901;48.172;12.824;2023-06-22T12:27:11;14.87;;;5.50;;
3771;SDS011;1901;48.172;12.824;2023-06-22T12:29:41;9.87;;;5.40;;
3771;SDS011;1901;48.172;12.824;2023-06-22T12:32:09;16.00;;;6.07;;
3771;SDS011;1901;48.172;12.824;2023-06-22T12:34:38;17.03;;;6.40;;
3771;SDS011;1901;48.172;12.824;2023-06-22T12:37:05;17.13;;;5.77;;
3771;SDS011;1901;48.172;12.824;2023-06-22T12:39:34;8.03;;;5.43;;
3771;SDS011;1901;48.172;12.824;2023-06-22T12:42:01;11.30;;;5.47;;
3771;SDS011;1901;48.172;12.824;2023-06-22T12:44:28;11.37;;;5.53;;
3771;SDS011;1901;48.172;12.824;2023-06-22T12:46:56;12.60;;;5.67;;
3771;SDS011;1901;48.172;12.824;2023-06-22T12:49:23;13.27;;;5.60;;
3771;SDS011;1901;48.172;12.824;2023-06-22T12:51:51;10.53;;;5.93;;
3771;SDS011;1901;48.172;12.824;2023-06-22T12:54:18;9.77;;;6.10;;
3771;SDS011;1901;48.172;12.824;2023-06-22T12:56:47;8.97;;;5.27;;
3771;SDS011;1901;48.172;12.824;2023-06-22T12:59:14;10.47;;;6.57;;
3771;SDS011;1901;48.172;12.824;2023-06-22T13:01:42;18.13;;;6.67;;
3771;SDS011;1901;48.172;12.824;2023-06-22T13:04:10;12.40;;;5.60;;
3771;SDS011;1901;48.172;12.824;2023-06-22T13:06:39;18.67;;;6.40;;
3771;SDS011;1901;48.172;12.824;2023-06-22T13:09:06;8.40;;;5.10;;
3771;SDS011;1901;48.172;12.824;2023-06-22T13:11:33;11.03;;;5.87;;
3771;SDS011;1901;48.172;12.824;2023-06-22T13:14:02;11.60;;;5.40;;
3771;SDS011;1901;48.172;12.824;2023-06-22T13:16:29;12.13;;;5.93;;
3771;SDS011;1901;48.172;12.824;2023-06-22T13:18:56;7.17;;;4.87;;
3771;SDS011;1901;48.172;12.824;2023-06-22T13:21:23;16.83;;;6.40;;
3771;SDS011;1901;48.172;12.824;2023-06-22T13:23:50;14.03;;;5.20;;
3771;SDS011;1901;48.172;12.824;2023-06-22T13:26:18;13.13;;;5.40;;
3771;SDS011;1901;48.172;12.824;2023-06-22T13:28:45;6.93;;;6.20;;
3771;SDS011;1901;48.172;12.824;2023-06-22T13:31:13;14.03;;;5.60;;
3771;SDS011;1901;48.172;12.824;2023-06-22T13:33:40;10.67;;;5.07;;
3771;SDS011;1901;48.172;12.824;2023-06-22T13:36:09;12.50;;;5.73;;
3771;SDS011;1901;48.172;12.824;2023-06-22T13:38:36;13.33;;;5.80;;
3771;SDS011;1901;48.172;12.824;2023-06-22T13:41:04;7.50;;;6.07;;
3771;SDS011;1901;48.172;12.824;2023-06-22T13:43:31;12.17;;;6.27;;
3771;SDS011;1901;48.172;12.824;2023-06-22T13:45:58;14.20;;;6.20;;
3771;SDS011;1901;48.172;12.824;2023-06-22T13:48:26;11.00;;;6.13;;
3771;SDS011;1901;48.172;12.824;2023-06-22T13:50:53;12.17;;;5.93;;
3771;SDS011;1901;48.172;12.824;2023-06-22T13:53:21;18.20;;;6.57;;
3771;SDS011;1901;48.172;12.824;2023-06-22T13:55:48;11.10;;;5.67;;
3771;SDS011;1901;48.172;12.824;2023-06-22T13:58:15;16.00;;;5.47;;
3771;SDS011;1901;48.172;12.824;2023-06-22T14:00:44;15.67;;;6.50;;
3771;SDS011;1901;48.172;12.824;2023-06-22T14:03:13;15.40;;;6.47;;
3771;SDS011;1901;48.172;12.824;2023-06-22T14:05:42;20.07;;;7.13;;
3771;SDS011;1901;48.172;12.824;2023-06-22T14:08:09;8.97;;;5.37;;
3771;SDS011;1901;48.172;12.824;2023-06-22T14:10:36;14.47;;;5.83;;
3771;SDS011;1901;48.172;12.824;2023-06-22T14:13:03;11.13;;;5.83;;
3771;SDS011;1901;48.172;12.824;2023-06-22T14:15:31;14.10;;;5.70;;
3771;SDS011;1901;48.172;12.824;2023-06-22T14:17:59;11.77;;;5.70;;
3771;SDS011;1901;48.172;12.824;2023-06-22T14:20:26;12.80;;;6.20;;
3771;SDS011;1901;48.172;12.824;2023-06-22T14:22:54;9.90;;;5.37;;
3771;SDS011;1901;48.172;12.824;2023-06-22T14:25:21;13.53;;;5.93;;
3771;SDS011;1901;48.172;12.824;2023-06-22T14:27:49;13.40;;;6.37;;
3771;SDS011;1901;48.172;12.824;2023-06-22T14:30:16;9.50;;;6.10;;
3771;SDS011;1901;48.172;12.824;2023-06-22T14:32:43;11.73;;;5.30;;
3771;SDS011;1901;48.172;12.824;2023-06-22T14:35:11;8.03;;;5.30;;
3771;SDS011;1901;48.172;12.824;2023-06-22T14:37:38;7.93;;;5.67;;
3771;SDS011;1901;48.172;12.824;2023-06-22T14:40:07;11.37;;;5.93;;
3771;SDS011;1901;48.172;12.824;2023-06-22T14:42:34;12.03;;;5.57;;
3771;SDS011;1901;48.172;12.824;2023-06-22T14:45:01;12.37;;;6.90;;
3771;SDS011;1901;48.172;12.824;2023-06-22T14:47:28;17.50;;;5.60;;
3771;SDS011;1901;48.172;12.824;2023-06-22T14:50:01;7.77;;;6.17;;
3771;SDS011;1901;48.172;12.824;2023-06-22T14:52:29;13.53;;;6.17;;
3771;SDS011;1901;48.172;12.824;2023-06-22T14:54:56;10.40;;;5.03;;
3771;SDS011;1901;48.172;12.824;2023-06-22T14:57:24;15.03;;;6.43;;
3771;SDS011;1901;48.172;12.824;2023-06-22T14:59:52;19.63;;;6.40;;